createdAt,value
2023-04-02T00:01:19.598Z,3.35
2023-04-02T00:04:22.131Z,3.28
2023-04-02T00:07:31.222Z,3.23
2023-04-02T00:10:03.162Z,3.25
2023-04-02T00:12:35.004Z,3.11
2023-04-02T00:15:07.586Z,3.13
2023-04-02T00:17:41.130Z,3.19
2023-04-02T00:20:20.142Z,3.22
2023-04-02T00:22:52.895Z,3.10
2023-04-02T00:25:27.940Z,3.09
2023-04-02T00:28:00.508Z,3.15
2023-04-02T00:30:33.130Z,3.06
2023-04-02T00:33:06.183Z,3.06
2023-04-02T00:35:42.324Z,3.04
2023-04-02T00:38:21.116Z,3.06
2023-04-02T00:40:56.869Z,3.00
2023-04-02T00:43:32.888Z,3.01
2023-04-02T00:46:14.171Z,2.94
2023-04-02T00:48:55.499Z,2.96
2023-04-02T00:51:33.307Z,2.97
2023-04-02T00:54:15.548Z,2.83
2023-04-02T00:56:51.657Z,2.92
2023-04-02T00:59:30.741Z,2.90
2023-04-02T01:02:26.297Z,2.91
2023-04-02T01:05:03.411Z,2.88
2023-04-02T01:07:52.450Z,2.86
2023-04-02T01:10:53.666Z,2.70
2023-04-02T01:13:37.718Z,2.74
2023-04-02T01:16:20.947Z,2.70
2023-04-02T01:19:08.652Z,2.62
2023-04-02T01:21:53.828Z,2.63
2023-04-02T01:24:31.110Z,2.64
2023-04-02T01:27:08.316Z,2.64
2023-04-02T01:29:48.496Z,2.58
2023-04-02T01:32:24.730Z,2.61
2023-04-02T01:34:58.286Z,2.62
2023-04-02T01:37:44.899Z,2.50
2023-04-02T01:40:34.923Z,2.59
2023-04-02T01:43:16.837Z,2.54
2023-04-02T01:45:50.589Z,2.51
2023-04-02T01:48:30.004Z,2.47
2023-04-02T01:51:08.134Z,2.41
2023-04-02T01:53:40.244Z,2.35
2023-04-02T01:56:12.147Z,2.46
2023-04-02T01:58:44.068Z,2.40
2023-04-02T02:01:22.559Z,2.39
2023-04-02T02:03:55.885Z,2.45
2023-04-02T02:06:28.327Z,2.44
2023-04-02T02:09:04.784Z,2.39
2023-04-02T02:11:38.413Z,2.31
2023-04-02T02:14:18.655Z,2.29
2023-04-02T02:16:56.528Z,2.35
2023-04-02T02:19:34.845Z,2.32
2023-04-02T02:22:15.404Z,2.29
2023-04-02T02:24:48.974Z,2.25
2023-04-02T02:27:48.348Z,2.25
2023-04-02T02:30:28.161Z,2.21
2023-04-02T02:33:06.592Z,2.31
2023-04-02T02:35:44.020Z,2.35
2023-04-02T02:38:32.676Z,2.37
2023-04-02T02:41:14.451Z,2.34
2023-04-02T02:43:54.216Z,2.38
2023-04-02T02:46:29.212Z,2.35
2023-04-02T02:49:06.035Z,2.32
2023-04-02T02:51:49.054Z,2.28
2023-04-02T02:54:23.203Z,2.36
2023-04-02T02:57:02.196Z,2.30
2023-04-02T02:59:35.145Z,2.23
2023-04-02T03:02:08.432Z,2.26
2023-04-02T03:04:41.877Z,2.27
2023-04-02T03:07:16.162Z,2.27
2023-04-02T03:09:55.446Z,2.24
2023-04-02T03:12:41.591Z,2.24
2023-04-02T03:15:22.436Z,2.23
2023-04-02T03:18:01.692Z,2.26
2023-04-02T03:20:46.754Z,2.36
2023-04-02T03:23:29.527Z,2.27
2023-04-02T03:26:11.267Z,2.29
2023-04-02T03:28:51.253Z,2.28
2023-04-02T03:31:29.829Z,2.27
2023-04-02T03:34:05.617Z,2.23
2023-04-02T03:36:49.056Z,2.22
2023-04-02T03:39:28.181Z,2.15
2023-04-02T03:42:05.910Z,2.24
2023-04-02T03:44:49.062Z,2.26
2023-04-02T03:47:31.829Z,2.20
2023-04-02T03:50:13.071Z,2.18
2023-04-02T03:52:46.678Z,2.26
2023-04-02T03:55:23.914Z,2.23
2023-04-02T03:58:03.620Z,2.24
2023-04-02T04:00:43.022Z,2.29
2023-04-02T04:03:22.182Z,2.25
2023-04-02T04:05:58.417Z,2.21
2023-04-02T04:08:42.349Z,2.15
2023-04-02T04:11:18.810Z,2.20
2023-04-02T04:13:58.648Z,2.25
2023-04-02T04:16:35.939Z,2.22
2023-04-02T04:19:18.084Z,2.23
2023-04-02T04:21:57.925Z,2.18
2023-04-02T04:24:32.661Z,2.23
2023-04-02T04:27:17.189Z,2.22
2023-04-02T04:29:56.825Z,2.20
2023-04-02T04:32:33.637Z,2.15
2023-04-02T04:35:15.688Z,2.12
2023-04-02T04:37:49.764Z,2.15
2023-04-02T04:40:29.635Z,2.17
2023-04-02T04:43:07.156Z,2.12
2023-04-02T04:45:49.106Z,2.16
2023-04-02T04:48:28.554Z,2.19
2023-04-02T04:51:05.830Z,2.19
2023-04-02T04:53:47.361Z,2.20
2023-04-02T04:56:29.151Z,2.17
2023-04-02T04:59:13.425Z,2.16
2023-04-02T05:01:53.313Z,2.14
2023-04-02T05:04:32.006Z,2.21
2023-04-02T05:07:12.650Z,2.23
2023-04-02T05:09:52.540Z,2.18
2023-04-02T05:12:37.289Z,2.20
2023-04-02T05:15:15.735Z,2.21
2023-04-02T05:17:53.540Z,2.17
2023-04-02T05:20:32.676Z,2.17
2023-04-02T05:23:16.792Z,2.07
2023-04-02T05:26:00.324Z,2.10
2023-04-02T05:28:44.077Z,2.12
2023-04-02T05:31:21.051Z,2.12
2023-04-02T05:33:55.036Z,2.13
2023-04-02T05:36:30.787Z,2.14
2023-04-02T05:39:04.161Z,2.17
2023-04-02T05:41:40.392Z,2.20
2023-04-02T05:44:24.385Z,2.16
2023-04-02T05:47:05.978Z,2.19
2023-04-02T05:49:48.246Z,2.21
2023-04-02T05:52:28.885Z,2.18
2023-04-02T05:55:24.542Z,2.22
2023-04-02T05:58:29.555Z,2.19
2023-04-02T06:01:07.659Z,2.21
2023-04-02T06:03:50.564Z,2.23
2023-04-02T06:06:30.491Z,2.24
2023-04-02T06:09:10.740Z,2.24
2023-04-02T06:11:49.085Z,2.25
2023-04-02T06:14:22.013Z,2.26
2023-04-02T06:16:55.143Z,2.24
2023-04-02T06:19:36.723Z,2.28
2023-04-02T06:22:19.912Z,2.25
2023-04-02T06:24:59.260Z,2.27
2023-04-02T06:27:34.295Z,2.23
2023-04-02T06:30:16.093Z,2.30
2023-04-02T06:32:49.253Z,2.29
2023-04-02T06:35:21.324Z,2.35
2023-04-02T06:37:58.007Z,2.36
2023-04-02T06:40:40.586Z,2.36
2023-04-02T06:43:23.884Z,2.42
2023-04-02T06:45:58.617Z,2.39
2023-04-02T06:48:34.777Z,2.41
2023-04-02T06:51:12.815Z,2.44
2023-04-02T06:53:51.570Z,2.46
2023-04-02T06:56:37.084Z,2.47
2023-04-02T06:59:09.480Z,2.52
2023-04-02T07:01:46.250Z,2.53
2023-04-02T07:04:21.642Z,2.50
2023-04-02T07:06:53.845Z,2.50
2023-04-02T07:09:25.924Z,2.55
2023-04-02T07:11:57.569Z,2.57
2023-04-02T07:14:30.920Z,2.60
2023-04-02T07:17:02.763Z,2.63
2023-04-02T07:19:35.708Z,2.60
2023-04-02T07:22:08.932Z,2.61
2023-04-02T07:24:40.833Z,2.64
2023-04-02T07:27:12.681Z,2.66
2023-04-02T07:29:44.522Z,2.70
2023-04-02T07:32:17.306Z,2.72
2023-04-02T07:34:50.530Z,2.73
2023-04-02T07:37:22.402Z,2.76
2023-04-02T07:39:54.307Z,2.76
2023-04-02T07:42:26.187Z,2.78
2023-04-02T07:44:58.193Z,2.77
2023-04-02T07:47:30.823Z,2.76
2023-04-02T07:50:03.817Z,2.78
2023-04-02T07:52:37.632Z,2.83
2023-04-02T07:55:12.511Z,2.86
2023-04-02T07:57:51.102Z,2.87
2023-04-02T08:00:28.322Z,2.88
2023-04-02T08:02:59.971Z,2.90
2023-04-02T08:05:33.844Z,2.89
2023-04-02T08:08:07.510Z,2.88
2023-04-02T08:10:39.287Z,2.89
2023-04-02T08:13:12.839Z,2.90
2023-04-02T08:15:45.125Z,2.96
2023-04-02T08:18:17.232Z,3.01
2023-04-02T08:20:50.186Z,3.01
2023-04-02T08:23:23.421Z,2.97
2023-04-02T08:25:55.905Z,3.02
2023-04-02T08:28:28.215Z,3.01
2023-04-02T08:31:00.100Z,2.99
2023-04-02T08:33:32.446Z,3.00
2023-04-02T08:36:05.791Z,3.04
2023-04-02T08:38:37.727Z,3.04
2023-04-02T08:41:17.945Z,3.06
2023-04-02T08:44:17.966Z,3.08
2023-04-02T08:47:01.284Z,3.12
2023-04-02T08:49:45.905Z,3.15
2023-04-02T08:52:29.583Z,3.15
2023-04-02T08:55:02.519Z,3.17
2023-04-02T08:57:47.416Z,3.21
2023-04-02T09:00:38.050Z,3.21
2023-04-02T09:03:20.402Z,3.21
2023-04-02T09:05:56.884Z,3.26
2023-04-02T09:08:33.156Z,3.26
2023-04-02T09:11:11.242Z,3.28
2023-04-02T09:13:51.863Z,3.32
2023-04-02T09:16:35.046Z,3.30
2023-04-02T09:19:15.884Z,3.34
2023-04-02T09:21:58.885Z,3.35
2023-04-02T09:24:31.854Z,3.40
2023-04-02T09:27:03.769Z,3.41
2023-04-02T09:29:48.583Z,3.45
2023-04-02T09:32:45.670Z,3.47
2023-04-02T09:35:25.986Z,3.52
2023-04-02T09:38:21.561Z,3.52
2023-04-02T09:41:05.386Z,3.54
2023-04-02T09:43:39.203Z,3.58
2023-04-02T09:46:26.048Z,3.64
2023-04-02T09:49:00.915Z,3.65
2023-04-02T09:51:36.522Z,3.66
2023-04-02T09:54:17.504Z,3.72
2023-04-02T09:59:42.613Z,3.79
2023-04-02T10:02:30.623Z,3.79
2023-04-02T10:05:23.520Z,3.84
2023-04-02T10:08:17.760Z,3.86
2023-04-02T10:10:54.213Z,3.88
2023-04-02T10:13:34.704Z,3.90
2023-04-02T10:16:14.245Z,3.93
2023-04-02T10:18:53.549Z,3.94
2023-04-02T10:21:30.271Z,3.97
2023-04-02T10:24:05.175Z,4.02
2023-04-02T10:26:58.958Z,4.11
2023-04-02T10:30:01.989Z,4.17
2023-04-02T10:32:43.950Z,4.24
2023-04-02T10:35:29.081Z,4.25
2023-04-02T10:38:22.810Z,4.35
2023-04-02T10:41:07.082Z,4.37
2023-04-02T10:44:16.813Z,4.45
2023-04-02T10:47:08.495Z,4.47
2023-04-02T10:49:56.193Z,4.48
2023-04-02T10:52:38.046Z,4.53
2023-04-02T10:55:19.078Z,4.46
2023-04-02T10:57:54.148Z,4.56
2023-04-02T11:00:32.403Z,4.62
2023-04-02T11:03:14.070Z,4.67
2023-04-02T11:05:50.866Z,4.71
2023-04-02T11:08:27.647Z,4.73
2023-04-02T11:11:07.872Z,4.87
2023-04-02T11:13:50.062Z,4.94
2023-04-02T11:16:22.409Z,4.90
2023-04-02T11:19:21.457Z,4.97
2023-04-02T11:21:59.868Z,5.27
2023-04-02T11:24:51.041Z,5.54
2023-04-02T11:27:26.962Z,5.83
2023-04-02T11:30:06.352Z,5.86
2023-04-02T11:32:47.344Z,6.04
2023-04-02T11:35:41.330Z,6.20
2023-04-02T11:38:52.811Z,6.23
2023-04-02T11:42:02.896Z,6.33
2023-04-02T11:44:34.479Z,6.31
2023-04-02T11:47:26.905Z,6.57
2023-04-02T11:50:27.305Z,6.64
2023-04-02T11:53:06.589Z,6.89
2023-04-02T11:55:41.366Z,7.14
2023-04-02T11:58:47.513Z,7.31
2023-04-02T12:02:00.653Z,7.28
2023-04-02T12:05:09.230Z,7.46
2023-04-02T12:08:13.555Z,7.66
2023-04-02T12:11:03.368Z,7.67
2023-04-02T12:13:59.552Z,7.78
2023-04-02T12:16:36.774Z,7.63
2023-04-02T12:19:16.499Z,7.65
2023-04-02T12:21:52.953Z,7.64
2023-04-02T12:24:25.881Z,7.53
2023-04-02T12:27:22.504Z,7.73
2023-04-02T12:29:55.873Z,7.55
2023-04-02T12:32:33.189Z,7.44
2023-04-02T12:35:06.187Z,7.40
2023-04-02T12:37:39.683Z,7.40
2023-04-02T12:40:25.642Z,7.45
2023-04-02T12:42:58.959Z,7.49
2023-04-02T12:45:36.561Z,7.42
2023-04-02T12:48:13.507Z,7.41
2023-04-02T12:50:45.647Z,7.29
2023-04-02T12:53:27.203Z,7.27
2023-04-02T12:55:59.517Z,7.55
2023-04-02T12:58:37.197Z,7.96
2023-04-02T13:01:21.244Z,8.30
2023-04-02T13:04:03.072Z,8.49
2023-04-02T13:06:36.167Z,8.26
2023-04-02T13:09:28.759Z,8.60
2023-04-02T13:12:01.048Z,8.91
2023-04-02T13:14:35.075Z,8.88
2023-04-02T13:17:25.709Z,8.73
2023-04-02T13:20:16.688Z,8.74
2023-04-02T13:22:50.479Z,8.98
2023-04-02T13:25:33.026Z,9.21
2023-04-02T13:28:04.845Z,9.02
2023-04-02T13:30:38.123Z,8.96
2023-04-02T13:33:12.609Z,8.85
2023-04-02T13:35:45.702Z,8.96
2023-04-02T13:38:17.295Z,9.07
2023-04-02T13:40:49.361Z,9.40
2023-04-02T13:43:23.681Z,9.66
2023-04-02T13:45:59.953Z,9.57
2023-04-02T13:48:31.794Z,9.21
2023-04-02T13:51:04.703Z,9.08
2023-04-02T13:53:39.796Z,8.93
2023-04-02T13:56:12.797Z,8.87
2023-04-02T13:58:44.769Z,8.51
2023-04-02T14:01:19.431Z,8.46
2023-04-02T14:03:51.582Z,8.80
2023-04-02T14:06:49.015Z,9.22
2023-04-02T14:09:34.190Z,9.56
2023-04-02T14:12:20.689Z,9.80
2023-04-02T14:15:09.257Z,9.95
2023-04-02T14:17:58.444Z,9.67
2023-04-02T14:20:41.418Z,9.88
2023-04-02T14:23:45.800Z,9.99
2023-04-02T14:26:39.346Z,9.73
2023-04-02T14:29:22.260Z,9.59
2023-04-02T14:32:05.085Z,9.94
2023-04-02T14:34:47.932Z,10.07
2023-04-02T14:37:29.761Z,10.01
2023-04-02T14:40:15.501Z,9.76
2023-04-02T14:42:54.763Z,10.18
2023-04-02T14:45:54.306Z,10.23
2023-04-02T14:48:41.700Z,10.47
2023-04-02T14:51:22.111Z,10.51
2023-04-02T14:54:02.850Z,10.55
2023-04-02T14:56:41.633Z,10.81
2023-04-02T14:59:29.769Z,10.58
2023-04-02T15:02:08.704Z,10.02
2023-04-02T15:04:46.909Z,9.54
2023-04-02T15:07:28.478Z,9.28
2023-04-02T15:10:17.980Z,9.19
2023-04-02T15:12:52.656Z,8.97
2023-04-02T15:15:40.286Z,9.36
2023-04-02T15:18:15.893Z,9.77
2023-04-02T15:20:58.246Z,9.90
2023-04-02T15:23:44.015Z,9.93
2023-04-02T15:26:26.303Z,10.10
2023-04-02T15:29:25.879Z,10.28
2023-04-02T15:32:16.329Z,10.60
2023-04-02T15:34:57.441Z,10.86
2023-04-02T15:37:34.397Z,10.64
2023-04-02T15:40:30.909Z,10.39
2023-04-02T15:43:15.378Z,9.97
2023-04-02T15:46:13.693Z,9.55
2023-04-02T15:49:24.396Z,9.52
2023-04-02T15:52:08.807Z,9.60
2023-04-02T15:55:11.229Z,9.86
2023-04-02T15:58:20.821Z,10.07
2023-04-02T16:01:04.079Z,10.01
2023-04-02T16:04:19.791Z,9.67
2023-04-02T16:07:13.833Z,9.61
2023-04-02T16:09:58.653Z,9.63
2023-04-02T16:12:34.334Z,9.45
2023-04-02T16:15:23.448Z,9.37
2023-04-02T16:18:02.842Z,9.47
2023-04-02T16:20:42.528Z,9.42
2023-04-02T16:23:24.545Z,9.27
2023-04-02T16:26:12.827Z,9.20
2023-04-02T16:28:55.752Z,9.20
2023-04-02T16:31:39.543Z,9.35
2023-04-02T16:34:24.339Z,9.46
2023-04-02T16:37:09.253Z,9.41
2023-04-02T16:39:50.574Z,9.34
2023-04-02T16:42:34.128Z,9.07
2023-04-02T16:45:25.085Z,8.89
2023-04-02T16:48:12.677Z,8.80
2023-04-02T16:50:57.713Z,8.71
2023-04-02T16:53:58.486Z,8.62
2023-04-02T16:56:46.821Z,8.66
2023-04-02T16:59:28.122Z,8.58
2023-04-02T17:02:04.767Z,8.60
2023-04-02T17:04:59.768Z,8.52
2023-04-02T17:07:45.890Z,8.57
2023-04-02T17:10:31.381Z,8.53
2023-04-02T17:13:18.843Z,8.52
2023-04-02T17:16:03.440Z,8.44
2023-04-02T17:18:36.400Z,8.43
2023-04-02T17:21:15.314Z,8.32
2023-04-02T17:26:30.873Z,8.08
2023-04-02T17:29:09.106Z,8.04
2023-04-02T17:31:43.188Z,7.99
2023-04-02T17:34:18.843Z,7.98
2023-04-02T17:37:01.151Z,8.02
2023-04-02T17:39:49.805Z,7.96
2023-04-02T17:42:35.496Z,7.87
2023-04-02T17:45:15.350Z,7.78
2023-04-02T17:47:57.249Z,7.72
2023-04-02T17:51:03.882Z,7.59
2023-04-02T17:53:50.030Z,7.59
2023-04-02T17:56:40.930Z,7.54
2023-04-02T17:59:38.091Z,7.58
2023-04-02T18:02:37.977Z,7.51
2023-04-02T18:05:22.237Z,7.53
2023-04-02T18:08:04.838Z,7.47
2023-04-02T18:10:47.229Z,7.44
2023-04-02T18:13:33.811Z,7.28
2023-04-02T18:16:42.575Z,7.13
2023-04-02T18:19:21.232Z,7.11
2023-04-02T18:22:03.864Z,7.21
2023-04-02T18:25:06.919Z,6.98
2023-04-02T18:27:56.564Z,7.04
2023-04-02T18:30:37.276Z,7.00
2023-04-02T18:33:36.685Z,6.85
2023-04-02T18:36:18.993Z,6.80
2023-04-02T18:39:01.011Z,6.75
2023-04-02T18:41:47.552Z,6.82
2023-04-02T18:44:43.784Z,6.62
2023-04-02T18:47:23.897Z,6.56
2023-04-02T18:50:15.641Z,6.38
2023-04-02T18:52:49.658Z,6.38
2023-04-02T18:55:27.252Z,6.46
2023-04-02T18:58:07.282Z,6.46
2023-04-02T19:00:45.600Z,6.41
2023-04-02T19:03:24.088Z,6.31
2023-04-02T19:06:00.910Z,6.23
2023-04-02T19:08:40.251Z,6.09
2023-04-02T19:11:17.458Z,6.03
2023-04-02T19:13:51.319Z,6.14
2023-04-02T19:16:58.449Z,6.03
2023-04-02T19:19:38.114Z,6.04
2023-04-02T19:22:26.275Z,6.13
2023-04-02T19:25:35.819Z,6.15
2023-04-02T19:28:20.168Z,6.01
2023-04-02T19:31:20.369Z,5.86
2023-04-02T19:34:03.792Z,5.81
2023-04-02T19:36:47.182Z,5.83
2023-04-02T19:39:46.642Z,5.75
2023-04-02T19:42:34.980Z,5.72
2023-04-02T19:45:20.308Z,5.80
2023-04-02T19:47:52.038Z,5.68
2023-04-02T19:50:25.606Z,5.72
2023-04-02T19:52:57.615Z,5.70
2023-04-02T19:55:30.616Z,5.54
2023-04-02T19:58:13.186Z,5.40
2023-04-02T20:00:51.054Z,5.41
2023-04-02T20:03:22.975Z,5.31
2023-04-02T20:05:56.864Z,5.19
2023-04-02T20:08:28.970Z,5.15
2023-04-02T20:11:01.931Z,5.10
2023-04-02T20:13:33.856Z,5.07
2023-04-02T20:16:08.451Z,5.11
2023-04-02T20:18:40.251Z,5.07
2023-04-02T20:21:14.020Z,4.97
2023-04-02T20:23:46.023Z,5.08
2023-04-02T20:26:18.083Z,5.01
2023-04-02T20:28:50.030Z,5.02
2023-04-02T20:31:23.228Z,4.96
2023-04-02T20:33:58.740Z,4.90
2023-04-02T20:36:32.287Z,4.88
2023-04-02T20:39:07.059Z,4.86
2023-04-02T20:41:38.834Z,4.85
2023-04-02T20:44:11.089Z,4.85
2023-04-02T20:46:42.707Z,4.81
2023-04-02T20:49:14.563Z,4.65
2023-04-02T20:51:48.547Z,4.66
2023-04-02T20:54:20.767Z,4.65
2023-04-02T20:56:52.615Z,4.52
2023-04-02T20:59:24.220Z,4.52
2023-04-02T21:01:56.258Z,4.47
2023-04-02T21:04:28.152Z,4.42
2023-04-02T21:07:01.186Z,4.30
2023-04-02T21:09:33.023Z,4.21
2023-04-02T21:12:04.752Z,4.22
2023-04-02T21:14:38.949Z,4.17
2023-04-02T21:17:11.095Z,4.14
2023-04-02T21:19:42.804Z,4.11
2023-04-02T21:22:17.079Z,4.06
2023-04-02T21:24:49.009Z,4.02
2023-04-02T21:27:22.210Z,4.04
2023-04-02T21:29:53.939Z,3.94
2023-04-02T21:32:25.710Z,3.96
2023-04-02T21:34:57.385Z,3.98
2023-04-02T21:37:30.664Z,3.97
2023-04-02T21:40:02.584Z,3.93
2023-04-02T21:42:34.419Z,3.99
2023-04-02T21:45:06.400Z,3.94
2023-04-02T21:47:38.282Z,3.81
2023-04-02T21:50:11.111Z,3.86
2023-04-02T21:52:44.327Z,3.82
2023-04-02T21:55:16.296Z,3.71
2023-04-02T21:57:48.106Z,3.69
2023-04-02T22:00:21.117Z,3.82
2023-04-02T22:02:52.886Z,3.79
2023-04-02T22:05:24.795Z,3.54
2023-04-02T22:07:57.956Z,3.49
2023-04-02T22:10:29.786Z,3.30
2023-04-02T22:13:02.411Z,3.34
2023-04-02T22:15:36.644Z,3.13
2023-04-02T22:18:09.143Z,3.25
2023-04-02T22:20:43.828Z,3.28
2023-04-02T22:23:18.251Z,3.28
2023-04-02T22:25:50.540Z,3.22
2023-04-02T22:28:22.595Z,3.25
2023-04-02T22:30:54.913Z,3.26
2023-04-02T22:33:27.978Z,3.27
2023-04-02T22:36:00.415Z,3.32
2023-04-02T22:38:34.905Z,3.28
2023-04-02T22:41:09.812Z,3.17
2023-04-02T22:43:44.069Z,3.03
2023-04-02T22:46:19.066Z,2.90
2023-04-02T22:48:52.435Z,2.93
2023-04-02T22:51:27.517Z,3.03
2023-04-02T22:54:01.337Z,3.01
2023-04-02T22:56:35.283Z,2.97
2023-04-02T22:59:06.951Z,2.89
2023-04-02T23:01:39.886Z,2.84
2023-04-02T23:04:12.087Z,2.81
2023-04-02T23:06:43.751Z,2.93
2023-04-02T23:09:16.805Z,2.71
2023-04-02T23:11:48.769Z,2.76
2023-04-02T23:14:20.675Z,2.80
2023-04-02T23:16:52.493Z,2.73
2023-04-02T23:19:24.443Z,2.76
2023-04-02T23:21:56.205Z,2.69
2023-04-02T23:24:29.209Z,2.66
2023-04-02T23:27:01.026Z,2.73
2023-04-02T23:29:32.961Z,2.53
2023-04-02T23:32:04.863Z,2.50
2023-04-02T23:34:36.676Z,2.40
2023-04-02T23:37:08.580Z,2.27
2023-04-02T23:39:41.751Z,2.34
2023-04-02T23:42:13.975Z,2.33
2023-04-02T23:44:45.796Z,2.36
2023-04-02T23:47:17.636Z,2.36
2023-04-02T23:49:49.436Z,2.21
2023-04-02T23:52:21.238Z,2.33
2023-04-02T23:54:54.404Z,2.23
2023-04-02T23:57:26.341Z,2.21
2023-04-02T23:59:58.161Z,2.27
